Terminal Aerodrome Forecast
Issued by NWS Sioux Falls, SD

Home | Current Version | Previous Version | Graphics & Text | Print | Product List | Glossary On
Versions: 1 2 3 4 5 6 7 8 9 10 11 12 13 14 15 16 17 18 19 20 21 22 23 24 25 26 27 28 29 30
754
FTUS43 KFSD 200457 AAA
TAFSUX
TAF AMD
KSUX 200457Z 2005/2024 14007KT 1SM BR OVC002
      TEMPO 2005/2007 1/4SM -DZ FG VV002
     FM201500 14009KT 1SM BR OVC003
     FM202100 12007KT 4SM -DZ OVC008=

USA.gov is the U.S. government's official web portal to all federal, state and local government web resources and services.